createdAt,value
2017-02-21T00:00:03.135Z,1012.72
2017-02-21T00:05:03.560Z,1012.79
2017-02-21T00:10:03.336Z,1012.82
2017-02-21T00:15:03.124Z,1012.82
2017-02-21T00:20:03.078Z,1012.83
2017-02-21T00:25:03.682Z,1012.79
2017-02-21T00:30:03.378Z,1012.73
2017-02-21T00:35:03.428Z,1012.72
2017-02-21T00:40:03.423Z,1012.8
2017-02-21T00:45:03.339Z,1012.72
2017-02-21T00:50:03.248Z,1012.67
2017-02-21T00:55:03.034Z,1012.67
2017-02-21T01:00:03.193Z,1012.56
2017-02-21T01:05:03.417Z,1012.58
2017-02-21T01:10:03.298Z,1012.59
2017-02-21T01:15:03.344Z,1012.69
2017-02-21T01:20:03.242Z,1012.74
2017-02-21T01:25:03.285Z,1012.72
2017-02-21T01:30:03.105Z,1012.79
2017-02-21T01:35:02.802Z,1012.79
2017-02-21T01:40:02.925Z,1012.74
2017-02-21T01:45:02.716Z,1012.78
2017-02-21T01:50:03.424Z,1012.76
2017-02-21T01:55:03.484Z,1012.78
2017-02-21T02:00:03.127Z,1012.82
2017-02-21T02:05:03.138Z,1012.81
2017-02-21T02:10:02.846Z,1012.74
2017-02-21T02:15:03.061Z,1012.71
2017-02-21T02:20:02.826Z,1012.73
2017-02-21T02:25:03.692Z,1012.68
2017-02-21T02:30:03.388Z,1012.67
2017-02-21T02:35:03.154Z,1012.75
2017-02-21T02:40:03.434Z,1012.63
2017-02-21T02:45:03.376Z,1012.69
2017-02-21T02:50:03.206Z,1012.57
2017-02-21T02:55:03.277Z,1012.58
2017-02-21T03:00:03.309Z,1012.62
2017-02-21T03:05:03.202Z,1012.61
2017-02-21T03:10:03.128Z,1012.71
2017-02-21T03:15:02.996Z,1012.87
2017-02-21T03:20:03.036Z,1012.66
2017-02-21T03:25:02.930Z,1012.86
2017-02-21T03:30:03.699Z,1012.78
2017-02-21T03:35:02.690Z,1012.85
2017-02-21T03:40:02.840Z,1012.88
2017-02-21T03:45:02.782Z,1013.02
2017-02-21T03:50:02.813Z,1012.97
2017-02-21T03:55:03.614Z,1012.9
2017-02-21T04:00:03.493Z,1012.88
2017-02-21T04:05:03.673Z,1012.95
2017-02-21T04:10:03.608Z,1012.73
2017-02-21T04:15:03.623Z,1012.68
2017-02-21T04:20:03.391Z,1012.67
2017-02-21T04:25:03.357Z,1012.7
2017-02-21T04:30:03.032Z,1012.79
2017-02-21T04:35:03.194Z,1012.78
2017-02-21T04:40:03.194Z,1012.79
2017-02-21T04:45:02.869Z,1013.06
2017-02-21T04:50:02.994Z,1012.98
2017-02-21T04:55:02.831Z,1013
2017-02-21T05:00:02.865Z,1013.01
2017-02-21T05:05:02.708Z,1012.97
2017-02-21T05:10:03.613Z,1013.06
2017-02-21T05:15:03.360Z,1013.08
2017-02-21T05:20:03.370Z,1013.11
2017-02-21T05:25:03.255Z,1013.06
2017-02-21T05:30:03.362Z,1013.17
2017-02-21T05:35:03.072Z,1013.14
2017-02-21T05:40:02.938Z,1013.25
2017-02-21T05:45:03.613Z,1013.26
2017-02-21T05:50:03.381Z,1013.33
2017-02-21T05:55:03.248Z,1013.4
2017-02-21T06:00:03.144Z,1013.35
2017-02-21T06:05:03.262Z,1013.36
2017-02-21T06:10:03.087Z,1013.39
2017-02-21T06:15:03.076Z,1013.48
2017-02-21T06:20:02.836Z,1013.58
2017-02-21T06:25:03.325Z,1013.67
2017-02-21T06:30:03.129Z,1013.72
2017-02-21T06:35:03.117Z,1013.7
2017-02-21T06:40:03.036Z,1013.86
2017-02-21T06:45:02.875Z,1013.82
2017-02-21T06:50:03.632Z,1013.71
2017-02-21T06:55:02.778Z,1013.68
2017-02-21T07:00:03.035Z,1013.77
2017-02-21T07:05:03.138Z,1013.78
2017-02-21T07:10:03.147Z,1013.92
2017-02-21T07:15:03.257Z,1014.02
2017-02-21T07:20:03.181Z,1014.03
2017-02-21T07:25:02.901Z,1014.1
2017-02-21T07:30:03.711Z,1014.11
2017-02-21T07:35:02.828Z,1014.16
2017-02-21T07:40:03.176Z,1014.16
2017-02-21T07:45:03.011Z,1014.22
2017-02-21T07:50:03.038Z,1014.16
2017-02-21T07:55:02.950Z,1014.31
2017-02-21T08:00:02.880Z,1014.34
2017-02-21T08:05:02.797Z,1014.26
2017-02-21T08:10:03.636Z,1014.32
2017-02-21T08:15:03.699Z,1014.41
2017-02-21T08:20:03.667Z,1014.39
2017-02-21T08:25:02.707Z,1014.34
2017-02-21T08:30:03.570Z,1014.37
2017-02-21T08:35:03.620Z,1014.27
2017-02-21T08:40:03.517Z,1014.37
2017-02-21T08:45:03.388Z,1014.38
2017-02-21T08:50:03.370Z,1014.39
2017-02-21T08:55:03.437Z,1014.43
2017-02-21T09:00:03.263Z,1014.46
2017-02-21T09:05:03.121Z,1014.55
2017-02-21T09:10:03.288Z,1014.57
2017-02-21T09:15:03.166Z,1014.55
2017-02-21T09:20:03.439Z,1014.61
2017-02-21T09:25:03.356Z,1014.62
2017-02-21T09:30:03.034Z,1014.68
2017-02-21T09:35:02.816Z,1014.64
2017-02-21T09:40:03.676Z,1014.71
2017-02-21T09:45:03.584Z,1014.74
2017-02-21T09:50:03.608Z,1014.78
2017-02-21T09:55:03.515Z,1014.84
2017-02-21T10:00:03.640Z,1014.83
2017-02-21T10:05:03.578Z,1014.83
2017-02-21T10:10:02.751Z,1014.85
2017-02-21T10:15:02.700Z,1014.77
2017-02-21T10:20:03.622Z,1014.86
2017-02-21T10:25:02.744Z,1014.83
2017-02-21T10:30:03.459Z,1015.01
2017-02-21T10:35:03.508Z,1014.94
2017-02-21T10:40:02.935Z,1014.82
2017-02-21T10:45:03.250Z,1014.86
2017-02-21T10:50:03.480Z,1014.95
2017-02-21T10:55:03.443Z,1014.87
2017-02-21T11:00:02.817Z,1014.89
2017-02-21T11:05:02.774Z,1014.92
2017-02-21T11:10:02.894Z,1014.96
2017-02-21T11:15:03.160Z,1015.07
2017-02-21T11:20:03.448Z,1015.09
2017-02-21T11:25:03.093Z,1015.09
2017-02-21T11:30:03.367Z,1015.02
2017-02-21T11:35:03.332Z,1015.19
2017-02-21T11:40:03.255Z,1015.05
2017-02-21T11:45:03.605Z,1015.08
2017-02-21T11:50:03.126Z,1015.07
2017-02-21T11:55:03.204Z,1015.16
2017-02-21T12:00:03.363Z,1015.07
2017-02-21T12:05:03.692Z,1015.03
2017-02-21T12:10:03.386Z,1015.07
2017-02-21T12:15:03.305Z,1014.97
2017-02-21T12:20:02.924Z,1014.98
2017-02-21T12:25:03.676Z,1014.97
2017-02-21T12:30:03.270Z,1014.94
2017-02-21T12:35:03.427Z,1014.91
2017-02-21T12:40:03.704Z,1014.91
2017-02-21T12:45:02.914Z,1014.79
2017-02-21T12:50:02.966Z,1014.86
2017-02-21T12:55:03.120Z,1014.87
2017-02-21T13:00:02.993Z,1014.82
2017-02-21T13:05:03.173Z,1014.85
2017-02-21T13:10:03.240Z,1014.83
2017-02-21T13:15:03.377Z,1014.84
2017-02-21T13:20:03.592Z,1014.81
2017-02-21T13:25:03.691Z,1014.76
2017-02-21T13:30:02.714Z,1014.73
2017-02-21T13:35:02.880Z,1014.63
2017-02-21T13:40:03.241Z,1014.62
2017-02-21T13:45:02.777Z,1014.69
2017-02-21T13:50:03.734Z,1014.73
2017-02-21T13:55:02.843Z,1014.66
2017-02-21T14:00:03.553Z,1014.7
2017-02-21T14:05:03.017Z,1014.58
2017-02-21T14:10:02.933Z,1014.66
2017-02-21T14:15:03.334Z,1014.65
2017-02-21T14:20:03.177Z,1014.6
2017-02-21T14:25:03.062Z,1014.59
2017-02-21T14:30:02.996Z,1014.51
2017-02-21T14:35:03.263Z,1014.5
2017-02-21T14:40:03.607Z,1014.55
2017-02-21T14:45:03.397Z,1014.57
2017-02-21T14:50:03.460Z,1014.44
2017-02-21T14:55:02.779Z,1014.44
2017-02-21T15:00:03.529Z,1014.39
2017-02-21T15:05:02.806Z,1014.4
2017-02-21T15:10:02.736Z,1014.32
2017-02-21T15:15:03.491Z,1014.38
2017-02-21T15:20:03.243Z,1014.22
2017-02-21T15:25:03.206Z,1014.23
2017-02-21T15:30:03.370Z,1014.23
2017-02-21T15:35:03.610Z,1014.32
2017-02-21T15:40:03.344Z,1014.29
2017-02-21T15:45:03.355Z,1014.29
2017-02-21T15:50:02.732Z,1014.23
2017-02-21T15:55:03.380Z,1014.14
2017-02-21T16:00:03.696Z,1014.01
2017-02-21T16:05:02.768Z,1013.95
2017-02-21T16:10:02.890Z,1013.93
2017-02-21T16:15:03.169Z,1013.93
2017-02-21T16:20:02.932Z,1013.94
2017-02-21T16:25:02.993Z,1013.94
2017-02-21T16:30:02.838Z,1013.86
2017-02-21T16:35:03.097Z,1013.79
2017-02-21T16:40:03.149Z,1013.86
2017-02-21T16:45:03.290Z,1013.78
2017-02-21T16:50:03.252Z,1013.82
2017-02-21T16:55:03.015Z,1013.81
2017-02-21T17:00:03.169Z,1013.83
2017-02-21T17:05:03.249Z,1013.88
2017-02-21T17:10:03.083Z,1013.85
2017-02-21T17:15:02.800Z,1013.83
2017-02-21T17:20:02.848Z,1013.87
2017-02-21T17:25:03.694Z,1013.9
2017-02-21T17:30:03.683Z,1013.88
2017-02-21T17:35:03.338Z,1013.85
2017-02-21T17:40:03.094Z,1013.76
2017-02-21T17:45:03.067Z,1013.8
2017-02-21T17:50:02.853Z,1013.68
2017-02-21T17:55:03.595Z,1013.76
2017-02-21T18:00:03.422Z,1013.73
2017-02-21T18:05:03.350Z,1013.72
2017-02-21T18:10:03.134Z,1013.71
2017-02-21T18:15:02.818Z,1013.58
2017-02-21T18:20:03.614Z,1013.6
2017-02-21T18:25:03.605Z,1013.49
2017-02-21T18:30:03.501Z,1013.45
2017-02-21T18:35:03.261Z,1013.39
2017-02-21T18:40:03.059Z,1013.38
2017-02-21T18:45:03.018Z,1013.25
2017-02-21T18:50:02.841Z,1013.06
2017-02-21T18:55:02.946Z,1013.06
2017-02-21T19:00:02.803Z,1013.03
2017-02-21T19:05:02.867Z,1012.96
2017-02-21T19:10:03.676Z,1012.94
2017-02-21T19:15:03.411Z,1012.69
2017-02-21T19:20:03.314Z,1012.64
2017-02-21T19:25:03.238Z,1012.66
2017-02-21T19:30:02.943Z,1012.58
2017-02-21T19:35:02.911Z,1012.52
2017-02-21T19:40:02.974Z,1012.51
2017-02-21T19:45:03.739Z,1012.39
2017-02-21T19:50:02.701Z,1012.4
2017-02-21T19:55:03.502Z,1012.32
2017-02-21T20:00:03.359Z,1012.23
2017-02-21T20:05:03.208Z,1012.16
2017-02-21T20:10:03.171Z,1012.08
2017-02-21T20:15:03.117Z,1011.94
2017-02-21T20:20:02.965Z,1012.03
2017-02-21T20:25:02.854Z,1011.97
2017-02-21T20:30:03.499Z,1011.95
2017-02-21T20:35:03.340Z,1011.91
2017-02-21T20:40:03.432Z,1011.84
2017-02-21T20:45:03.254Z,1011.72
2017-02-21T20:50:02.988Z,1011.58
2017-02-21T20:55:02.991Z,1011.58
2017-02-21T21:00:02.704Z,1011.58
2017-02-21T21:05:03.479Z,1011.3
2017-02-21T21:10:03.315Z,1011.22
2017-02-21T21:15:03.417Z,1011.25
2017-02-21T21:20:03.410Z,1011.08
2017-02-21T21:25:03.220Z,1010.89
2017-02-21T21:30:03.315Z,1010.85
2017-02-21T21:35:03.224Z,1010.81
2017-02-21T21:40:03.032Z,1010.66
2017-02-21T21:45:02.820Z,1010.67
2017-02-21T21:50:03.559Z,1010.63
2017-02-21T21:55:03.439Z,1010.59
2017-02-21T22:00:03.285Z,1010.41
2017-02-21T22:05:03.091Z,1010.54
2017-02-21T22:10:02.953Z,1010.18
2017-02-21T22:15:02.894Z,1010.09
2017-02-21T22:20:02.949Z,1009.98
2017-02-21T22:25:03.560Z,1010.06
2017-02-21T22:30:03.377Z,1009.89
2017-02-21T22:35:03.467Z,1009.79
2017-02-21T22:40:03.432Z,1009.81
2017-02-21T22:45:03.333Z,1009.76
2017-02-21T22:50:03.354Z,1009.87
2017-02-21T22:55:02.992Z,1009.54
2017-02-21T23:00:02.872Z,1009.42
2017-02-21T23:05:02.903Z,1009.34
2017-02-21T23:10:03.649Z,1009.47
2017-02-21T23:15:03.445Z,1009.23
2017-02-21T23:20:03.347Z,1009.25
2017-02-21T23:25:03.225Z,1009.2
2017-02-21T23:30:02.993Z,1009.32
2017-02-21T23:35:02.849Z,1009.14
2017-02-21T23:40:02.735Z,1009.03
2017-02-21T23:45:03.527Z,1008.9
2017-02-21T23:50:03.216Z,1008.92
2017-02-21T23:55:03.178Z,1008.77
